Time;durP1;ratioP1;P1;durP2;ratioP2;P2;SDS_P1;SDS_P2;PMS_P1;PMS_P2;Temp;Humidity;BMP_temperature;BMP_pressure;BME280_temperature;BME280_humidity;BME280_pressure;Samples;Min_cycle;Max_cycle;Signal;HPM_P1;HPM_P2
2022/04/18 00:00:11;;;;;;;;;2.00;2.00;;;;;;;;5121683;27;45440;-74
2022/04/18 00:02:36;;;;;;;;;2.00;2.00;;;;;;;;5121772;27;46058;-74
2022/04/18 00:05:01;;;;;;;;;4.00;3.00;;;;;;;;5110890;27;45322;-75
2022/04/18 00:07:27;;;;;;;;;2.33;2.33;;;;;;;;5100999;27;45314;-74
2022/04/18 00:09:52;;;;;;;;;2.00;2.00;;;;;;;;5101128;27;45481;-74
2022/04/18 00:12:18;;;;;;;;;4.00;3.33;;;;;;;;5100729;27;45898;-75
2022/04/18 00:14:44;;;;;;;;;3.00;2.00;;;;;;;;5102454;27;45361;-75
2022/04/18 00:17:09;;;;;;;;;3.33;2.33;;;;;;;;5102929;27;45338;-74
2022/04/18 00:19:35;;;;;;;;;1.33;1.33;;;;;;;;5121301;27;45475;-74
2022/04/18 00:22:00;;;;;;;;;1.33;1.33;;;;;;;;5121350;27;45269;-74
2022/04/18 00:24:25;;;;;;;;;2.00;1.00;;;;;;;;5121429;27;45233;-74
2022/04/18 00:26:51;;;;;;;;;2.33;2.33;;;;;;;;5121504;27;45175;-74
2022/04/18 00:29:16;;;;;;;;;1.00;1.00;;;;;;;;5102874;27;46102;-74
2022/04/18 00:31:42;;;;;;;;;3.00;2.00;;;;;;;;5121183;27;45320;-76
2022/04/18 00:34:08;;;;;;;;;1.33;1.33;;;;;;;;5120899;27;45275;-73
2022/04/18 00:36:33;;;;;;;;;2.33;2.33;;;;;;;;5102408;27;45296;-74
2022/04/18 00:38:58;;;;;;;;;2.00;1.00;;;;;;;;5121267;27;45242;-74
2022/04/18 00:41:23;;;;;;;;;3.00;2.00;;;;;;;;5121098;27;46185;-74
2022/04/18 00:43:49;;;;;;;;;1.67;1.67;;;;;;;;5121216;27;45346;-74
2022/04/18 00:46:15;;;;;;;;;3.00;3.00;;;;;;;;5121253;27;45435;-74
2022/04/18 00:48:41;;;;;;;;;1.33;1.33;;;;;;;;5120737;27;45520;-74
2022/04/18 00:51:07;;;;;;;;;3.00;1.00;;;;;;;;5120821;27;45997;-74
2022/04/18 00:53:34;;;;;;;;;1.33;1.33;;;;;;;;5102510;27;45336;-75
2022/04/18 00:55:59;;;;;;;;;2.00;2.00;;;;;;;;5121014;27;45343;-75
2022/04/18 00:58:24;;;;;;;;;1.67;1.67;;;;;;;;5120860;27;45315;-74
2022/04/18 01:00:50;;;;;;;;;3.00;3.00;;;;;;;;5120914;27;45356;-74
2022/04/18 01:03:15;;;;;;;;;1.00;1.00;;;;;;;;5120949;27;45274;-74
2022/04/18 01:05:41;;;;;;;;;1.33;1.33;;;;;;;;5102199;27;45279;-74
2022/04/18 01:08:07;;;;;;;;;1.00;1.00;;;;;;;;5120438;27;45343;-74
2022/04/18 01:10:32;;;;;;;;;1.00;1.00;;;;;;;;5101785;27;47093;-74
2022/04/18 01:12:57;;;;;;;;;2.33;2.33;;;;;;;;5120625;27;45349;-74
2022/04/18 01:15:22;;;;;;;;;3.00;3.00;;;;;;;;5120555;27;45361;-74
2022/04/18 01:17:48;;;;;;;;;3.00;1.33;;;;;;;;5120679;27;45616;-74
2022/04/18 01:20:13;;;;;;;;;2.33;2.00;;;;;;;;5120339;27;45304;-75
2022/04/18 01:22:38;;;;;;;;;2.00;2.00;;;;;;;;5120569;27;45324;-74
2022/04/18 01:30:32;;;;;;;;;3.00;3.00;;;;;;;;5120221;27;45317;-74
2022/04/18 01:32:57;;;;;;;;;2.00;2.00;;;;;;;;5120284;27;45460;-74
2022/04/18 01:35:22;;;;;;;;;3.00;3.00;;;;;;;;5120275;27;45285;-74
2022/04/18 01:37:47;;;;;;;;;2.00;2.00;;;;;;;;5120423;27;45984;-74
2022/04/18 01:40:13;;;;;;;;;2.00;2.00;;;;;;;;5120190;27;46413;-74
2022/04/18 01:42:38;;;;;;;;;2.00;2.00;;;;;;;;5101709;27;46186;-74
2022/04/18 01:45:03;;;;;;;;;2.67;2.67;;;;;;;;5120408;27;45699;-74
2022/04/18 01:47:29;;;;;;;;;0.00;0.00;;;;;;;;5101692;27;46215;-74
2022/04/18 01:49:54;;;;;;;;;3.00;3.00;;;;;;;;5123120;27;45349;-74
2022/04/18 01:52:20;;;;;;;;;4.00;3.00;;;;;;;;5105125;27;45321;-74
2022/04/18 01:54:45;;;;;;;;;4.00;4.00;;;;;;;;5123944;27;45242;-74
2022/04/18 01:57:10;;;;;;;;;5.00;4.00;;;;;;;;5123801;27;45324;-74
2022/04/18 01:59:35;;;;;;;;;3.00;3.00;;;;;;;;5123809;27;45384;-74
2022/04/18 02:02:00;;;;;;;;;5.00;4.00;;;;;;;;5105124;27;45792;-74
2022/04/18 02:04:26;;;;;;;;;4.00;4.00;;;;;;;;5123729;27;45337;-74
2022/04/18 02:06:51;;;;;;;;;5.67;5.67;;;;;;;;5123467;27;45321;-74
2022/04/18 02:09:16;;;;;;;;;3.00;3.00;;;;;;;;5123628;27;45450;-75
2022/04/18 02:11:41;;;;;;;;;2.00;2.00;;;;;;;;5105231;27;46019;-75
2022/04/18 02:14:06;;;;;;;;;6.00;5.00;;;;;;;;5123655;27;45327;-73
2022/04/18 02:16:32;;;;;;;;;3.00;3.00;;;;;;;;5106405;27;45421;-75
2022/04/18 02:18:57;;;;;;;;;1.00;1.00;;;;;;;;5102576;27;46261;-75
2022/04/18 02:21:23;;;;;;;;;4.67;4.67;;;;;;;;5102932;27;45283;-75
2022/04/18 02:23:48;;;;;;;;;4.00;3.33;;;;;;;;5102973;27;45588;-74
2022/04/18 02:26:14;;;;;;;;;3.00;3.00;;;;;;;;5102591;27;45354;-74
2022/04/18 02:28:40;;;;;;;;;3.67;3.00;;;;;;;;5102666;27;45271;-74
2022/04/18 02:31:06;;;;;;;;;3.67;3.00;;;;;;;;5102668;27;45360;-74
2022/04/18 02:33:31;;;;;;;;;3.67;3.33;;;;;;;;5102479;27;45388;-74
2022/04/18 02:35:56;;;;;;;;;4.00;4.00;;;;;;;;5083986;27;46132;-74
2022/04/18 02:38:21;;;;;;;;;4.00;4.00;;;;;;;;5102339;27;45386;-74
2022/04/18 02:40:46;;;;;;;;;3.33;3.33;;;;;;;;5102640;27;45236;-75
2022/04/18 02:43:12;;;;;;;;;1.00;1.00;;;;;;;;5084194;27;45337;-74
2022/04/18 02:45:37;;;;;;;;;3.67;3.67;;;;;;;;5083915;27;47074;-74
2022/04/18 02:48:03;;;;;;;;;4.00;3.00;;;;;;;;5102162;27;45428;-74
2022/04/18 02:50:28;;;;;;;;;4.00;3.00;;;;;;;;5102916;27;45333;-74
2022/04/18 02:52:54;;;;;;;;;4.00;4.00;;;;;;;;5123079;27;45468;-74
2022/04/18 02:55:19;;;;;;;;;5.00;5.00;;;;;;;;5122760;27;45316;-74
2022/04/18 02:57:45;;;;;;;;;4.67;4.00;;;;;;;;5122863;27;45194;-73
2022/04/18 03:00:11;;;;;;;;;5.67;5.00;;;;;;;;5121468;27;45498;-75
2022/04/18 03:02:37;;;;;;;;;7.00;6.33;;;;;;;;5122926;27;45248;-73
2022/04/18 03:05:04;;;;;;;;;7.00;5.67;;;;;;;;5122530;27;45498;-74
2022/04/18 03:07:29;;;;;;;;;6.67;6.00;;;;;;;;5122375;27;46406;-74
2022/04/18 03:09:54;;;;;;;;;7.67;7.67;;;;;;;;5122553;27;45461;-74
2022/04/18 03:12:20;;;;;;;;;6.00;6.00;;;;;;;;5104362;27;45693;-74
2022/04/18 03:14:45;;;;;;;;;5.33;5.33;;;;;;;;5122361;27;45316;-74
2022/04/18 03:17:11;;;;;;;;;7.00;7.00;;;;;;;;5103967;27;47154;-74
2022/04/18 03:19:37;;;;;;;;;5.33;5.33;;;;;;;;5122352;27;45333;-74
2022/04/18 03:22:02;;;;;;;;;7.00;7.00;;;;;;;;5122421;27;45262;-74
2022/04/18 03:24:27;;;;;;;;;6.33;6.33;;;;;;;;5122418;27;45503;-74
2022/04/18 03:26:52;;;;;;;;;7.33;6.33;;;;;;;;5103512;27;47427;-74
2022/04/18 03:29:18;;;;;;;;;6.67;6.67;;;;;;;;5122194;27;45326;-74
2022/04/18 03:31:43;;;;;;;;;6.00;5.33;;;;;;;;5122411;27;45244;-74
2022/04/18 03:34:08;;;;;;;;;4.00;4.00;;;;;;;;5121807;27;45321;-74
2022/04/18 03:42:02;;;;;;;;;6.67;5.00;;;;;;;;5122071;27;45350;-73
2022/04/18 03:44:27;;;;;;;;;6.00;6.00;;;;;;;;5103479;27;47317;-74
2022/04/18 03:46:52;;;;;;;;;4.00;4.00;;;;;;;;5121936;27;45235;-74
2022/04/18 03:49:18;;;;;;;;;5.67;5.67;;;;;;;;5121673;27;45202;-74
2022/04/18 03:51:43;;;;;;;;;6.67;5.00;;;;;;;;5122058;27;45345;-74
2022/04/18 03:54:08;;;;;;;;;5.00;4.33;;;;;;;;5103161;27;46290;-73
2022/04/18 03:56:34;;;;;;;;;6.67;6.00;;;;;;;;5121976;27;46260;-74
2022/04/18 03:58:59;;;;;;;;;5.67;4.00;;;;;;;;5121831;27;45369;-74
2022/04/18 04:01:24;;;;;;;;;5.00;5.00;;;;;;;;5122165;27;45475;-74
2022/04/18 04:03:50;;;;;;;;;6.00;6.00;;;;;;;;5121552;27;45309;-74
2022/04/18 04:06:15;;;;;;;;;4.00;4.00;;;;;;;;5121523;27;45257;-75
2022/04/18 04:08:40;;;;;;;;;4.00;4.00;;;;;;;;5121756;27;45462;-74
2022/04/18 04:11:05;;;;;;;;;4.67;4.00;;;;;;;;5102670;27;45295;-74
2022/04/18 04:13:31;;;;;;;;;4.00;4.00;;;;;;;;5121637;27;45562;-75
2022/04/18 04:15:56;;;;;;;;;3.67;3.67;;;;;;;;5121220;27;45330;-74
2022/04/18 04:18:21;;;;;;;;;4.33;4.33;;;;;;;;5121616;27;45349;-74
2022/04/18 04:20:46;;;;;;;;;7.00;5.00;;;;;;;;5121614;27;45304;-74
2022/04/18 04:23:11;;;;;;;;;4.67;4.67;;;;;;;;5121305;27;45592;-74
2022/04/18 04:25:37;;;;;;;;;6.33;6.00;;;;;;;;5121378;27;46409;-74
2022/04/18 04:28:02;;;;;;;;;8.00;6.67;;;;;;;;5102911;27;45304;-74
2022/04/18 04:30:27;;;;;;;;;7.33;7.33;;;;;;;;5121619;27;45316;-74
2022/04/18 04:32:52;;;;;;;;;10.50;8.75;;;;;;;;5102496;27;47431;-74
2022/04/18 04:35:18;;;;;;;;;8.33;7.00;;;;;;;;5121110;27;45465;-74
2022/04/18 04:37:44;;;;;;;;;8.00;8.00;;;;;;;;5121096;27;45381;-74
2022/04/18 04:40:09;;;;;;;;;7.00;7.00;;;;;;;;5102649;27;45449;-73
2022/04/18 04:42:35;;;;;;;;;5.00;5.00;;;;;;;;5121100;27;45365;-74
2022/04/18 04:45:00;;;;;;;;;8.00;8.00;;;;;;;;5121075;27;45320;-74
2022/04/18 04:47:25;;;;;;;;;7.67;7.67;;;;;;;;5102565;27;45988;-74
2022/04/18 04:49:50;;;;;;;;;8.33;8.33;;;;;;;;5120822;27;45321;-75
2022/04/18 04:52:15;;;;;;;;;7.00;7.00;;;;;;;;5120899;27;45207;-77
2022/04/18 04:54:41;;;;;;;;;8.33;7.33;;;;;;;;5121089;27;45350;-75
2022/04/18 04:57:06;;;;;;;;;9.00;8.00;;;;;;;;5120931;27;45420;-76
2022/04/18 04:59:31;;;;;;;;;10.33;8.67;;;;;;;;5125693;27;45406;-75
2022/04/18 05:01:56;;;;;;;;;6.67;6.00;;;;;;;;5120189;27;46102;-75
2022/04/18 05:04:25;;;;;;;;;8.00;8.00;;;;;;;;5122661;27;47515;-75
2022/04/18 05:06:50;;;;;;;;;8.67;8.67;;;;;;;;5141345;27;45307;-74
2022/04/18 05:09:15;;;;;;;;;7.67;7.67;;;;;;;;5141644;27;45703;-75
2022/04/18 05:11:40;;;;;;;;;7.50;6.50;;;;;;;;5141651;27;45443;-74
2022/04/18 05:14:06;;;;;;;;;6.33;5.67;;;;;;;;5122692;27;48421;-75
2022/04/18 05:16:31;;;;;;;;;7.00;7.00;;;;;;;;5124354;27;45246;-75
2022/04/18 05:18:56;;;;;;;;;5.33;5.33;;;;;;;;5120563;27;45253;-76
2022/04/18 05:21:21;;;;;;;;;7.00;6.00;;;;;;;;5102102;27;46912;-75
2022/04/18 05:23:48;;;;;;;;;5.33;5.00;;;;;;;;5122142;27;45288;-75
2022/04/18 05:26:13;;;;;;;;;4.67;4.67;;;;;;;;5105738;27;45429;-74
2022/04/18 05:28:38;;;;;;;;;7.00;7.00;;;;;;;;5124394;27;45331;-75
2022/04/18 05:31:03;;;;;;;;;4.00;4.00;;;;;;;;5123040;27;45533;-76
2022/04/18 05:33:29;;;;;;;;;6.67;6.67;;;;;;;;5123461;27;46527;-75
2022/04/18 05:35:54;;;;;;;;;6.33;6.33;;;;;;;;5122628;27;45328;-74
2022/04/18 05:38:19;;;;;;;;;11.50;11.50;;;;;;;;5123496;27;45445;-73
2022/04/18 05:40:44;;;;;;;;;6.33;5.00;;;;;;;;5124014;27;45368;-75
2022/04/18 05:43:10;;;;;;;;;5.00;5.00;;;;;;;;5105283;27;47086;-74
2022/04/18 05:45:38;;;;;;;;;6.00;6.00;;;;;;;;5123959;27;45429;-75
2022/04/18 05:48:03;;;;;;;;;5.00;4.00;;;;;;;;5124147;27;45360;-80
2022/04/18 05:50:28;;;;;;;;;10.75;7.75;;;;;;;;5123109;27;45602;-76
2022/04/18 05:52:54;;;;;;;;;7.00;7.00;;;;;;;;5104821;27;47283;-75
2022/04/18 05:55:20;;;;;;;;;6.75;6.75;;;;;;;;5105524;27;45295;-75
2022/04/18 05:57:45;;;;;;;;;5.00;5.00;;;;;;;;5120446;27;45432;-75
2022/04/18 06:00:10;;;;;;;;;8.00;7.00;;;;;;;;5147319;27;45493;-76
2022/04/18 06:02:36;;;;;;;;;22.75;22.75;;;;;;;;5145526;27;45341;-74
2022/04/18 06:05:01;;;;;;;;;10.33;8.33;;;;;;;;5144303;27;45293;-73
2022/04/18 06:07:26;;;;;;;;;7.67;6.33;;;;;;;;5144513;27;45294;-74
2022/04/18 06:09:51;;;;;;;;;9.33;8.33;;;;;;;;5125792;27;46413;-74
2022/04/18 06:12:20;;;;;;;;;9.67;8.33;;;;;;;;5144416;27;45303;-74
2022/04/18 06:14:45;;;;;;;;;7.33;7.33;;;;;;;;5142566;27;45328;-74
2022/04/18 06:17:11;;;;;;;;;13.33;10.67;;;;;;;;5123767;27;45324;-73
2022/04/18 06:19:36;;;;;;;;;7.33;7.33;;;;;;;;5123477;27;45293;-74
2022/04/18 06:22:01;;;;;;;;;9.67;9.00;;;;;;;;5105601;27;46965;-74
2022/04/18 06:24:26;;;;;;;;;8.00;8.00;;;;;;;;5105278;27;45843;-74
2022/04/18 06:26:51;;;;;;;;;9.00;9.00;;;;;;;;5123825;27;45578;-74
2022/04/18 06:29:17;;;;;;;;;9.00;8.00;;;;;;;;5123971;27;45297;-74
2022/04/18 06:31:42;;;;;;;;;9.67;8.00;;;;;;;;5101978;27;48186;-73
2022/04/18 06:34:07;;;;;;;;;8.00;7.33;;;;;;;;5105456;27;45296;-74
2022/04/18 06:36:32;;;;;;;;;8.00;8.00;;;;;;;;5113689;27;45438;-74
2022/04/18 06:38:57;;;;;;;;;9.00;8.33;;;;;;;;5106717;27;45480;-77
2022/04/18 06:41:23;;;;;;;;;7.00;7.00;;;;;;;;5125342;27;47153;-74
2022/04/18 06:43:48;;;;;;;;;8.00;8.00;;;;;;;;5143032;27;45455;-74
2022/04/18 06:46:13;;;;;;;;;9.67;8.00;;;;;;;;5144096;27;45418;-74
2022/04/18 06:48:38;;;;;;;;;7.00;7.00;;;;;;;;5143841;27;45259;-74
2022/04/18 06:51:04;;;;;;;;;6.00;5.00;;;;;;;;5125106;27;47137;-75
2022/04/18 06:53:29;;;;;;;;;5.67;5.67;;;;;;;;5143748;27;45193;-74
2022/04/18 06:58:38;;;;;;;;;6.33;6.33;;;;;;;;5143755;27;45400;-74
2022/04/18 07:01:04;;;;;;;;;6.00;6.00;;;;;;;;5140165;27;45958;-76
2022/04/18 07:03:29;;;;;;;;;11.00;5.67;;;;;;;;5105269;27;45202;-75
2022/04/18 07:05:54;;;;;;;;;6.67;6.00;;;;;;;;5104858;27;45219;-76
2022/04/18 07:08:19;;;;;;;;;5.00;5.00;;;;;;;;5103813;27;45205;-75
2022/04/18 07:10:44;;;;;;;;;5.00;5.00;;;;;;;;5107576;27;46212;-76
2022/04/18 07:13:10;;;;;;;;;5.33;5.33;;;;;;;;5127203;27;45202;-75
2022/04/18 07:15:35;;;;;;;;;6.00;6.00;;;;;;;;5107735;27;45232;-76
2022/04/18 07:18:01;;;;;;;;;5.33;5.33;;;;;;;;5123082;27;45522;-74
2022/04/18 07:20:27;;;;;;;;;6.00;6.00;;;;;;;;5123210;27;45368;-74
2022/04/18 07:22:52;;;;;;;;;5.67;5.67;;;;;;;;5123248;27;45381;-74
2022/04/18 07:25:17;;;;;;;;;9.00;8.00;;;;;;;;5105595;27;45268;-74
2022/04/18 07:27:44;;;;;;;;;6.67;6.67;;;;;;;;5104962;27;47008;-75
2022/04/18 07:30:09;;;;;;;;;9.00;9.00;;;;;;;;5117333;27;45472;-74
2022/04/18 07:32:38;;;;;;;;;6.00;6.00;;;;;;;;5085124;27;46069;-75
2022/04/18 07:35:04;;;;;;;;;8.00;7.67;;;;;;;;5102229;27;45290;-75
2022/04/18 07:37:29;;;;;;;;;6.00;6.00;;;;;;;;5101408;27;45230;-74
2022/04/18 07:39:54;;;;;;;;;7.67;6.67;;;;;;;;5083272;27;47496;-74
2022/04/18 07:42:20;;;;;;;;;5.33;5.00;;;;;;;;5101787;27;45209;-74
2022/04/18 07:44:46;;;;;;;;;7.67;7.67;;;;;;;;5101807;27;45373;-74
2022/04/18 07:47:11;;;;;;;;;6.00;6.00;;;;;;;;5100569;27;45422;-74
2022/04/18 07:49:36;;;;;;;;;6.00;5.00;;;;;;;;5082564;27;48090;-74
2022/04/18 07:52:01;;;;;;;;;4.67;4.33;;;;;;;;5101325;27;45354;-74
2022/04/18 07:54:26;;;;;;;;;5.00;5.00;;;;;;;;5101703;27;45262;-74
2022/04/18 07:56:52;;;;;;;;;7.00;7.00;;;;;;;;5101326;27;45484;-74
2022/04/18 07:59:18;;;;;;;;;7.00;5.00;;;;;;;;5101757;27;46029;-74
2022/04/18 08:01:43;;;;;;;;;7.33;7.33;;;;;;;;5083038;27;45371;-74
2022/04/18 08:04:09;;;;;;;;;5.00;5.00;;;;;;;;5101159;27;45260;-74
2022/04/18 08:06:34;;;;;;;;;5.67;5.33;;;;;;;;5102215;27;45284;-77
2022/04/18 08:08:59;;;;;;;;;5.00;5.00;;;;;;;;5113562;27;45425;-75
2022/04/18 08:11:25;;;;;;;;;2.33;2.33;;;;;;;;5124488;27;45659;-75
2022/04/18 08:13:50;;;;;;;;;4.00;4.00;;;;;;;;5142944;27;45325;-75
2022/04/18 08:16:16;;;;;;;;;4.00;4.00;;;;;;;;5127873;27;45427;-76
2022/04/18 08:18:44;;;;;;;;;4.00;4.00;;;;;;;;5121901;27;45551;-77
2022/04/18 08:21:10;;;;;;;;;7.00;7.00;;;;;;;;5103361;27;45322;-77
2022/04/18 08:23:35;;;;;;;;;6.00;6.00;;;;;;;;5102588;27;45336;-77
2022/04/18 08:26:02;;;;;;;;;6.00;6.00;;;;;;;;5095340;27;47175;-77
2022/04/18 08:28:27;;;;;;;;;9.00;7.00;;;;;;;;5084880;27;47694;-77
2022/04/18 08:30:53;;;;;;;;;9.33;9.33;;;;;;;;5082714;27;45346;-77
2022/04/18 08:33:18;;;;;;;;;6.00;6.00;;;;;;;;5102369;27;45377;-76
2022/04/18 08:35:43;;;;;;;;;6.00;6.00;;;;;;;;5104835;27;45610;-76
2022/04/18 08:38:08;;;;;;;;;7.00;7.00;;;;;;;;5103881;27;45816;-78
2022/04/18 08:40:36;;;;;;;;;7.00;7.00;;;;;;;;5103256;27;45263;-77
2022/04/18 08:43:01;;;;;;;;;5.00;5.00;;;;;;;;5102050;27;45256;-78
2022/04/18 08:45:26;;;;;;;;;7.00;7.00;;;;;;;;5104263;27;45512;-77
2022/04/18 08:53:24;;;;;;;;;7.00;7.00;;;;;;;;5079883;28;45393;-79
2022/04/18 08:55:49;;;;;;;;;6.67;6.67;;;;;;;;5079768;28;45409;-76
2022/04/18 08:58:15;;;;;;;;;4.33;4.33;;;;;;;;5079789;28;45187;-78
2022/04/18 09:00:40;;;;;;;;;5.00;5.00;;;;;;;;5061683;28;45286;-78
2022/04/18 09:03:06;;;;;;;;;5.67;5.67;;;;;;;;5067230;27;45412;-77
2022/04/18 09:05:35;;;;;;;;;5.67;5.67;;;;;;;;5100234;27;45378;-79
2022/04/18 09:08:02;;;;;;;;;5.00;5.00;;;;;;;;5100699;27;45678;-79
2022/04/18 09:10:28;;;;;;;;;6.00;5.00;;;;;;;;5081756;27;45556;-77
2022/04/18 09:12:53;;;;;;;;;4.00;4.00;;;;;;;;5081055;27;45378;-78
2022/04/18 09:15:34;;;;;;;;;4.00;4.00;;;;;;;;5102191;27;45278;-79
2022/04/18 09:18:16;;;;;;;;;4.00;4.00;;;;;;;;5081399;27;47641;-79
2022/04/18 09:20:49;;;;;;;;;5.00;5.00;;;;;;;;5100282;27;45378;-78
2022/04/18 09:23:22;;;;;;;;;4.33;4.33;;;;;;;;5100296;27;45258;-78
2022/04/18 09:25:54;;;;;;;;;5.00;5.00;;;;;;;;5099872;27;45549;-79
2022/04/18 09:28:22;;;;;;;;;4.33;4.33;;;;;;;;5100473;27;46057;-78
2022/04/18 09:30:55;;;;;;;;;4.00;4.00;;;;;;;;5083538;27;45423;-78
2022/04/18 09:33:20;;;;;;;;;3.33;3.33;;;;;;;;5063249;28;45406;-78
2022/04/18 09:35:47;;;;;;;;;3.00;3.00;;;;;;;;5080018;28;45480;-78
2022/04/18 09:38:16;;;;;;;;;6.00;5.67;;;;;;;;5079467;28;45514;-78
2022/04/18 09:40:41;;;;;;;;;5.00;4.00;;;;;;;;5079635;28;45349;-79
2022/04/18 09:43:06;;;;;;;;;5.00;5.00;;;;;;;;5079553;27;45418;-78
2022/04/18 09:45:31;;;;;;;;;6.00;6.00;;;;;;;;5077858;27;45479;-76
2022/04/18 09:47:58;;;;;;;;;3.00;3.00;;;;;;;;5080481;27;45311;-81
2022/04/18 09:53:34;;;;;;;;;3.00;3.00;;;;;;;;5118525;27;45448;-77
2022/04/18 09:56:00;;;;;;;;;5.33;4.00;;;;;;;;5094998;27;45432;-79
2022/04/18 09:58:25;;;;;;;;;5.67;5.00;;;;;;;;5093112;27;48335;-78
2022/04/18 10:00:50;;;;;;;;;4.00;4.00;;;;;;;;5115456;27;45295;-75
2022/04/18 10:03:16;;;;;;;;;1.00;1.00;;;;;;;;5086341;27;45390;-77
2022/04/18 10:05:42;;;;;;;;;4.67;4.00;;;;;;;;5099375;27;45380;-79
2022/04/18 10:08:07;;;;;;;;;4.00;4.00;;;;;;;;5097091;27;47251;-81
2022/04/18 10:10:33;;;;;;;;;4.33;4.33;;;;;;;;5121413;27;45881;-81
2022/04/18 10:12:58;;;;;;;;;3.00;3.00;;;;;;;;5147303;27;45423;-80
2022/04/18 10:15:23;;;;;;;;;3.00;3.00;;;;;;;;5138076;27;45288;-79
2022/04/18 10:17:49;;;;;;;;;4.33;4.33;;;;;;;;5125737;27;45389;-82
2022/04/18 10:20:38;;;;;;;;;6.00;6.00;;;;;;;;5105622;27;45376;-79
2022/04/18 10:23:30;;;;;;;;;4.67;4.33;;;;;;;;5075241;27;45367;-81
2022/04/18 10:25:59;;;;;;;;;5.33;5.33;;;;;;;;5066820;27;46466;-78
2022/04/18 10:28:26;;;;;;;;;5.00;5.00;;;;;;;;5095987;27;47292;-81
2022/04/18 10:30:51;;;;;;;;;2.67;2.67;;;;;;;;5104033;27;45398;-81
2022/04/18 10:33:17;;;;;;;;;3.00;3.00;;;;;;;;5103384;27;45321;-80
2022/04/18 10:36:01;;;;;;;;;4.33;4.33;;;;;;;;5084282;27;45591;-79
2022/04/18 10:38:27;;;;;;;;;6.67;6.00;;;;;;;;5107012;27;45714;-81
2022/04/18 10:41:14;;;;;;;;;4.67;4.67;;;;;;;;5111680;27;45461;-82
2022/04/18 10:43:53;;;;;;;;;4.00;3.00;;;;;;;;5123445;27;45282;-82
2022/04/18 10:46:19;;;;;;;;;3.33;3.33;;;;;;;;5111553;27;45278;-83
2022/04/18 10:48:53;;;;;;;;;3.00;3.00;;;;;;;;5093367;27;48045;-78
2022/04/18 10:51:28;;;;;;;;;3.67;3.67;;;;;;;;5100887;27;46226;-79
2022/04/18 10:54:08;;;;;;;;;3.33;3.33;;;;;;;;5084547;27;45282;-80
2022/04/18 10:56:47;;;;;;;;;4.00;3.67;;;;;;;;5090781;27;46407;-82
2022/04/18 10:59:13;;;;;;;;;5.00;5.00;;;;;;;;5099360;27;46320;-80
2022/04/18 11:01:38;;;;;;;;;5.00;5.00;;;;;;;;5103389;27;45457;-80
2022/04/18 11:04:07;;;;;;;;;4.00;4.00;;;;;;;;5110273;27;45512;-81
2022/04/18 11:06:36;;;;;;;;;4.00;4.00;;;;;;;;5081782;27;45828;-80
2022/04/18 11:09:16;;;;;;;;;4.00;4.00;;;;;;;;5085945;27;48162;-82
2022/04/18 11:12:01;;;;;;;;;4.00;4.00;;;;;;;;5095687;27;45809;-80
2022/04/18 11:14:40;;;;;;;;;6.33;6.33;;;;;;;;5091552;27;45403;-80
2022/04/18 11:17:06;;;;;;;;;4.00;4.00;;;;;;;;5096686;27;46192;-80
2022/04/18 11:19:39;;;;;;;;;5.33;4.67;;;;;;;;5093227;27;45726;-82
2022/04/18 11:22:06;;;;;;;;;3.33;3.33;;;;;;;;5091376;27;45430;-86
2022/04/18 11:24:37;;;;;;;;;5.00;5.00;;;;;;;;5092585;27;45618;-84
2022/04/18 11:27:06;;;;;;;;;5.00;5.00;;;;;;;;5090588;27;45661;-81
2022/04/18 11:29:31;;;;;;;;;5.00;5.00;;;;;;;;5091451;27;45798;-82
2022/04/18 11:31:57;;;;;;;;;4.67;4.33;;;;;;;;5093634;27;45519;-81
2022/04/18 11:34:25;;;;;;;;;3.00;3.00;;;;;;;;5119972;27;46121;-82
2022/04/18 11:36:52;;;;;;;;;5.00;5.00;;;;;;;;5102791;27;45974;-81
2022/04/18 11:39:17;;;;;;;;;3.00;1.67;;;;;;;;5103014;27;48353;-81
2022/04/18 11:42:04;;;;;;;;;5.33;5.33;;;;;;;;5114069;27;45465;-81
2022/04/18 11:44:40;;;;;;;;;6.00;6.00;;;;;;;;5098405;27;45560;-80
2022/04/18 11:47:16;;;;;;;;;5.33;5.00;;;;;;;;5121510;27;45469;-82
2022/04/18 11:49:41;;;;;;;;;5.00;5.00;;;;;;;;5092103;27;45521;-81
2022/04/18 11:52:16;;;;;;;;;4.00;4.00;;;;;;;;5105946;27;45599;-80
2022/04/18 11:54:52;;;;;;;;;5.33;5.33;;;;;;;;5110233;27;45254;-81
2022/04/18 11:57:17;;;;;;;;;5.00;4.00;;;;;;;;5092240;27;47104;-80
2022/04/18 11:59:42;;;;;;;;;4.00;4.00;;;;;;;;5088990;27;47025;-80
2022/04/18 12:07:48;;;;;;;;;5.00;5.00;;;;;;;;5055733;27;45257;-79
2022/04/18 12:10:22;;;;;;;;;5.67;5.67;;;;;;;;5100817;27;47961;-79
2022/04/18 12:12:48;;;;;;;;;4.33;4.33;;;;;;;;5109309;27;45415;-79
2022/04/18 12:15:13;;;;;;;;;5.00;5.00;;;;;;;;5116320;27;45365;-79
2022/04/18 12:17:38;;;;;;;;;5.33;5.33;;;;;;;;5110751;27;45301;-80
2022/04/18 12:20:18;;;;;;;;;4.00;4.00;;;;;;;;5107439;27;46204;-81
2022/04/18 12:22:48;;;;;;;;;4.00;4.00;;;;;;;;5100112;27;45513;-80
2022/04/18 12:25:20;;;;;;;;;5.00;4.33;;;;;;;;5105769;27;45265;-80
2022/04/18 12:27:46;;;;;;;;;4.33;4.33;;;;;;;;5123418;27;45425;-80
2022/04/18 12:30:11;;;;;;;;;4.00;3.33;;;;;;;;5107430;27;47050;-81
2022/04/18 12:32:37;;;;;;;;;3.33;3.33;;;;;;;;5104926;27;45169;-78
2022/04/18 12:35:02;;;;;;;;;4.00;4.00;;;;;;;;5092013;27;45482;-80
2022/04/18 12:37:28;;;;;;;;;2.67;2.67;;;;;;;;5090837;27;46928;-81
2022/04/18 12:40:12;;;;;;;;;4.67;4.67;;;;;;;;5109181;27;45436;-79
2022/04/18 12:42:37;;;;;;;;;4.00;4.00;;;;;;;;5100655;27;45222;-79
2022/04/18 12:45:03;;;;;;;;;2.33;2.33;;;;;;;;5101391;27;45190;-82
2022/04/18 12:47:30;;;;;;;;;2.67;2.67;;;;;;;;5103681;27;45299;-79
2022/04/18 12:50:09;;;;;;;;;4.33;4.33;;;;;;;;5101493;27;47444;-79
2022/04/18 12:52:45;;;;;;;;;4.00;4.00;;;;;;;;5107791;27;45423;-79
2022/04/18 12:55:10;;;;;;;;;3.33;3.33;;;;;;;;5088672;27;45349;-80
2022/04/18 12:57:35;;;;;;;;;4.00;4.00;;;;;;;;5110664;27;45310;-81
2022/04/18 13:00:11;;;;;;;;;5.00;4.00;;;;;;;;5115488;27;45353;-80
2022/04/18 13:02:37;;;;;;;;;3.67;3.67;;;;;;;;5104934;27;45381;-83
2022/04/18 13:05:03;;;;;;;;;3.00;3.00;;;;;;;;5093534;27;45258;-81
2022/04/18 13:07:28;;;;;;;;;3.00;3.00;;;;;;;;5092435;27;46541;-81
2022/04/18 13:10:02;;;;;;;;;6.00;6.00;;;;;;;;5109233;27;45312;-81
2022/04/18 13:12:30;;;;;;;;;4.00;4.00;;;;;;;;5109260;27;45407;-82
2022/04/18 13:14:58;;;;;;;;;5.00;5.00;;;;;;;;5108299;27;45598;-83
2022/04/18 13:17:23;;;;;;;;;4.00;4.00;;;;;;;;5090615;27;45517;-81
2022/04/18 13:19:48;;;;;;;;;5.33;5.33;;;;;;;;5107370;27;46321;-81
2022/04/18 13:22:13;;;;;;;;;6.00;4.33;;;;;;;;5107343;27;45512;-78
2022/04/18 13:24:39;;;;;;;;;4.33;4.33;;;;;;;;5088517;27;45357;-79
2022/04/18 13:27:04;;;;;;;;;3.33;3.33;;;;;;;;5082601;27;45623;-79
2022/04/18 13:29:39;;;;;;;;;4.33;4.33;;;;;;;;5086539;27;46527;-80
2022/04/18 13:32:11;;;;;;;;;4.00;4.00;;;;;;;;5109836;27;45470;-80
2022/04/18 13:41:15;;;;;;;;;4.00;3.00;;;;;;;;5063556;27;45576;-81
2022/04/18 13:43:51;;;;;;;;;3.00;3.00;;;;;;;;5102160;27;45468;-80
2022/04/18 13:46:37;;;;;;;;;3.00;2.67;;;;;;;;5110499;27;45382;-80
2022/04/18 13:52:13;;;;;;;;;3.00;3.00;;;;;;;;5037125;28;45604;-79
2022/04/18 13:54:39;;;;;;;;;3.00;3.00;;;;;;;;5120496;27;45369;-80
2022/04/18 13:57:11;;;;;;;;;4.00;4.00;;;;;;;;5139074;27;45393;-77
2022/04/18 13:59:36;;;;;;;;;2.00;2.00;;;;;;;;5106209;27;45655;-80
2022/04/18 14:02:07;;;;;;;;;1.00;1.00;;;;;;;;5099800;27;47204;-80
2022/04/18 14:04:53;;;;;;;;;1.00;1.00;;;;;;;;5106083;27;45386;-80
2022/04/18 14:10:16;;;;;;;;;1.67;1.67;;;;;;;;5124703;27;45365;-79
2022/04/18 14:12:41;;;;;;;;;3.50;2.00;;;;;;;;5096027;27;46015;-83
2022/04/18 14:20:34;;;;;;;;;1.00;1.00;;;;;;;;5122746;27;45393;-79
2022/04/18 14:23:01;;;;;;;;;2.33;2.33;;;;;;;;5108834;27;45355;-79
2022/04/18 14:25:27;;;;;;;;;3.00;3.00;;;;;;;;5088835;27;45322;-83
2022/04/18 14:30:44;;;;;;;;;2.00;2.00;;;;;;;;5118433;27;45766;-81
2022/04/18 14:33:15;;;;;;;;;1.67;1.67;;;;;;;;5118818;27;45575;-81
2022/04/18 14:38:39;;;;;;;;;1.00;1.00;;;;;;;;5129084;27;45395;-80
2022/04/18 14:41:08;;;;;;;;;0.67;0.67;;;;;;;;5131005;27;45554;-81
2022/04/18 14:43:36;;;;;;;;;1.00;1.00;;;;;;;;5129710;27;45367;-79
2022/04/18 14:46:08;;;;;;;;;2.00;2.00;;;;;;;;5096638;27;45886;-81
2022/04/18 14:48:54;;;;;;;;;1.00;1.00;;;;;;;;5108106;27;45303;-81
2022/04/18 14:51:24;;;;;;;;;1.00;1.00;;;;;;;;5093719;27;46164;-80
2022/04/18 14:53:55;;;;;;;;;0.67;0.67;;;;;;;;5108613;27;48129;-80
2022/04/18 14:56:21;;;;;;;;;1.00;1.00;;;;;;;;5107645;27;45390;-80
2022/04/18 14:58:46;;;;;;;;;1.67;1.67;;;;;;;;5099261;27;45503;-80
2022/04/18 15:01:11;;;;;;;;;2.00;2.00;;;;;;;;5130185;27;45346;-80
2022/04/18 15:03:40;;;;;;;;;1.00;1.00;;;;;;;;5111301;27;45707;-81
2022/04/18 15:06:05;;;;;;;;;1.00;1.00;;;;;;;;5101237;27;45475;-82
2022/04/18 15:08:31;;;;;;;;;1.00;1.00;;;;;;;;5109959;27;45515;-80
2022/04/18 15:11:02;;;;;;;;;1.00;1.00;;;;;;;;5106135;27;45532;-80
2022/04/18 15:13:27;;;;;;;;;1.67;1.33;;;;;;;;5093916;27;47206;-78
2022/04/18 15:15:55;;;;;;;;;0.00;0.00;;;;;;;;5117711;27;45573;-78
2022/04/18 15:18:23;;;;;;;;;1.67;1.67;;;;;;;;5110590;27;45437;-78
2022/04/18 15:20:49;;;;;;;;;0.00;0.00;;;;;;;;5108385;27;45708;-78
2022/04/18 15:23:19;;;;;;;;;1.00;0.00;;;;;;;;5105383;27;45555;-80
2022/04/18 15:25:45;;;;;;;;;1.00;1.00;;;;;;;;5100935;27;45358;-79
2022/04/18 15:28:26;;;;;;;;;1.00;1.00;;;;;;;;5091272;27;45448;-81
2022/04/18 15:33:35;;;;;;;;;1.00;1.00;;;;;;;;5109660;27;45756;-79
2022/04/18 15:36:01;;;;;;;;;1.67;1.67;;;;;;;;5089352;27;45314;-79